Time;durP1;ratioP1;P1;durP2;ratioP2;P2;SDS_P1;SDS_P2;PMS_P1;PMS_P2;Temp;Humidity;BMP_temperature;BMP_pressure;BME280_temperature;BME280_humidity;BME280_pressure;Samples;Min_cycle;Max_cycle;Signal;HPM_P1;HPM_P2
2021/04/09 00:01:38;;;;;;;12.13;3.80;;;;;;;-141.50;100.00;63355.56;4993283;28;20045;-76
2021/04/09 00:04:04;;;;;;;6.78;3.15;;;;;;;-141.50;100.00;63355.56;5010235;28;20038;-76
2021/04/09 00:06:30;;;;;;;7.15;3.40;;;;;;;-141.50;100.00;63355.56;5011484;28;20053;-77
2021/04/09 00:08:56;;;;;;;9.77;3.65;;;;;;;-141.50;100.00;63355.56;5009084;28;20056;-76
2021/04/09 00:11:22;;;;;;;9.13;3.83;;;;;;;-141.50;100.00;63355.56;5009618;28;20141;-76
2021/04/09 00:13:49;;;;;;;9.93;3.88;;;;;;;-141.50;100.00;63355.56;5018929;28;20052;-76
2021/04/09 00:16:15;;;;;;;7.20;3.72;;;;;;;-141.50;100.00;63355.56;5010285;28;20046;-76
2021/04/09 00:18:41;;;;;;;10.20;3.67;;;;;;;-141.50;100.00;63355.56;4991871;28;20045;-75
2021/04/09 00:21:10;;;;;;;12.10;3.58;;;;;;;-141.50;100.00;63355.56;4992871;28;20072;-76
2021/04/09 00:23:36;;;;;;;9.32;3.58;;;;;;;-141.50;100.00;63355.56;5008676;28;20042;-75
2021/04/09 00:26:06;;;;;;;11.75;4.22;;;;;;;-141.50;100.00;63355.56;5009869;28;20053;-75
2021/04/09 00:28:32;;;;;;;10.57;4.07;;;;;;;-141.50;100.00;63355.56;5009418;28;20073;-76
2021/04/09 00:30:58;;;;;;;10.98;4.05;;;;;;;-141.50;100.00;63355.56;4992199;28;20041;-76
2021/04/09 00:33:24;;;;;;;11.50;4.07;;;;;;;-141.50;100.00;63355.56;4992066;28;20042;-76
2021/04/09 00:35:53;;;;;;;8.95;3.95;;;;;;;-141.50;100.00;63355.56;4991951;28;20056;-76
2021/04/09 00:38:19;;;;;;;8.82;4.28;;;;;;;-141.50;100.00;63355.56;5008773;28;20046;-76
2021/04/09 00:40:45;;;;;;;9.57;3.97;;;;;;;-141.50;100.00;63355.56;4992084;28;20413;-76
2021/04/09 00:43:11;;;;;;;9.07;3.92;;;;;;;-141.50;100.00;63355.56;5034005;23;20044;-79
2021/04/09 00:45:38;;;;;;;10.65;4.38;;;;;;;-141.50;100.00;63355.56;5049379;28;20045;-78
2021/04/09 00:48:05;;;;;;;9.52;4.15;;;;;;;-141.50;100.00;63355.56;5053545;28;20052;-78
2021/04/09 00:50:33;;;;;;;12.95;5.57;;;;;;;-141.50;100.00;63355.56;5052875;28;20056;-78
2021/04/09 00:53:01;;;;;;;12.43;4.53;;;;;;;-141.50;100.00;63355.56;5051985;28;20040;-78
2021/04/09 00:55:29;;;;;;;9.48;3.85;;;;;;;-141.50;100.00;63355.56;5070182;28;20052;-79
2021/04/09 00:57:59;;;;;;;10.77;4.35;;;;;;;-141.50;100.00;63355.56;5071442;22;20078;-77
2021/04/09 01:00:26;;;;;;;17.33;4.70;;;;;;;-141.50;100.00;63355.56;5084002;28;20075;-77
2021/04/09 01:02:53;;;;;;;10.25;4.43;;;;;;;-141.50;100.00;63355.56;5085762;28;20044;-76
2021/04/09 01:05:20;;;;;;;12.60;4.50;;;;;;;-141.50;100.00;63355.56;5094369;28;20050;-77
2021/04/09 01:07:47;;;;;;;12.85;4.55;;;;;;;-141.50;100.00;63355.56;5084075;28;20048;-77
2021/04/09 01:10:17;;;;;;;15.68;5.00;;;;;;;-141.50;100.00;63355.56;5084503;28;20068;-77
2021/04/09 01:12:44;;;;;;;13.93;4.45;;;;;;;-141.50;100.00;63355.56;5101490;28;20048;-77
2021/04/09 01:15:11;;;;;;;13.02;4.65;;;;;;;-141.50;100.00;63355.56;5091781;28;20040;-77
2021/04/09 01:18:07;;;;;;;12.13;4.88;;;;;;;-141.50;100.00;63355.56;5075228;28;20136;-77
2021/04/09 01:20:42;;;;;;;;;;;;;;;-141.50;100.00;63355.56;5093728;28;20064;-77
2021/04/09 01:23:45;;;;;;;11.35;4.93;;;;;;;-141.50;100.00;63355.56;5086379;28;19920;-77
2021/04/09 01:26:30;;;;;;;8.98;4.80;;;;;;;-141.50;100.00;63355.56;5076620;28;20438;-77
2021/04/09 01:29:28;;;;;;;12.90;4.80;;;;;;;-141.50;100.00;63355.56;5093013;28;20040;-77
2021/04/09 01:32:00;;;;;;;10.65;4.53;;;;;;;-141.50;100.00;63355.56;5093618;28;20119;-77
2021/04/09 01:34:32;;;;;;;13.20;4.70;;;;;;;-141.50;100.00;63355.56;5074635;28;20169;-77
2021/04/09 01:37:08;;;;;;;12.45;4.70;;;;;;;-141.50;100.00;63355.56;5093709;28;20124;-77
2021/04/09 01:39:36;;;;;;;11.88;5.53;;;;;;;-141.50;100.00;63355.56;5094660;28;20040;-76
2021/04/09 01:42:05;;;;;;;10.50;4.57;;;;;;;-141.50;100.00;63355.56;5075428;28;20055;-77
2021/04/09 01:44:34;;;;;;;20.33;5.00;;;;;;;-141.50;100.00;63355.56;5075752;28;20040;-77
2021/04/09 01:47:03;;;;;;;12.80;5.22;;;;;;;-141.50;100.00;63355.56;5071025;28;20086;-77
2021/04/09 01:49:32;;;;;;;15.52;4.97;;;;;;;-141.50;100.00;63355.56;5071962;28;20538;-77
2021/04/09 01:52:00;;;;;;;13.38;5.38;;;;;;;-141.50;100.00;63355.56;5072430;28;20123;-76
2021/04/09 01:54:30;;;;;;;12.65;4.88;;;;;;;-141.50;100.00;63355.56;5072291;28;20041;-77
2021/04/09 01:56:57;;;;;;;15.63;5.72;;;;;;;-141.50;100.00;63355.56;5072479;28;20492;-76
2021/04/09 01:59:24;;;;;;;12.30;5.47;;;;;;;-141.50;100.00;63355.56;5073029;28;20044;-77
2021/04/09 02:01:51;;;;;;;16.67;5.00;;;;;;;-141.50;100.00;63355.56;5056954;28;20044;-76
2021/04/09 02:04:20;;;;;;;13.90;5.47;;;;;;;-141.50;100.00;63355.56;5075434;28;20498;-76
2021/04/09 02:06:48;;;;;;;9.52;4.95;;;;;;;-141.50;100.00;63355.56;5076853;28;20045;-78
2021/04/09 02:09:16;;;;;;;13.80;5.07;;;;;;;-141.50;100.00;63355.56;5079227;28;20097;-77
2021/04/09 02:11:43;;;;;;;11.25;4.85;;;;;;;-141.50;100.00;63355.56;5076535;28;20053;-77
2021/04/09 02:14:15;;;;;;;12.02;5.55;;;;;;;-141.50;100.00;63355.56;5057940;28;20040;-77
2021/04/09 02:16:45;;;;;;;11.57;5.10;;;;;;;-141.50;100.00;63355.56;5074951;28;20049;-77
2021/04/09 02:19:12;;;;;;;14.07;5.25;;;;;;;-141.50;100.00;63355.56;5077634;28;20048;-78
2021/04/09 02:21:38;;;;;;;14.32;5.32;;;;;;;-141.50;100.00;63355.56;5075619;28;20117;-77
2021/04/09 02:24:06;;;;;;;13.88;5.43;;;;;;;-141.50;100.00;63355.56;5072818;28;20040;-77
2021/04/09 02:26:33;;;;;;;13.10;5.50;;;;;;;-141.50;100.00;63355.56;5073690;28;20052;-77
2021/04/09 02:29:00;;;;;;;10.27;5.30;;;;;;;-141.50;100.00;63355.56;5073811;28;20041;-76
2021/04/09 02:31:27;;;;;;;12.30;5.57;;;;;;;-141.50;100.00;63355.56;5073512;28;20094;-76
2021/04/09 02:33:54;;;;;;;12.60;5.80;;;;;;;-141.50;100.00;63355.56;5073623;28;20047;-76
2021/04/09 02:36:22;;;;;;;12.75;5.30;;;;;;;-141.50;100.00;63355.56;5074138;28;20670;-77
2021/04/09 02:39:11;;;;;;;13.45;5.38;;;;;;;-141.50;100.00;63355.56;5073548;28;20049;-77
2021/04/09 02:41:41;;;;;;;12.73;5.43;;;;;;;-141.50;100.00;63355.56;5073505;28;20101;-78
2021/04/09 02:44:08;;;;;;;13.02;5.40;;;;;;;-141.50;100.00;63355.56;5055867;28;20520;-77
2021/04/09 02:46:39;;;;;;;12.13;5.80;;;;;;;-141.50;100.00;63355.56;5073707;28;20473;-77
2021/04/09 02:49:33;;;;;;;12.25;5.53;;;;;;;-141.50;100.00;63355.56;5072937;28;20041;-77
2021/04/09 02:52:02;;;;;;;15.68;5.60;;;;;;;-141.50;100.00;63355.56;5065986;28;20059;-77
2021/04/09 02:54:29;;;;;;;11.90;4.90;;;;;;;-141.50;100.00;63355.56;5038887;28;20045;-78
2021/04/09 02:56:57;;;;;;;14.55;5.43;;;;;;;-141.50;100.00;63355.56;5070178;28;20105;-78
2021/04/09 02:59:27;;;;;;;12.93;5.70;;;;;;;-141.50;100.00;63355.56;5092803;28;20051;-77
2021/04/09 03:01:53;;;;;;;13.23;5.50;;;;;;;-141.50;100.00;63355.56;5092767;28;20044;-78
2021/04/09 03:04:20;;;;;;;11.52;5.90;;;;;;;-141.50;100.00;63355.56;5091543;28;20126;-79
2021/04/09 03:06:47;;;;;;;13.85;5.55;;;;;;;-141.50;100.00;63355.56;5074624;28;20047;-78
2021/04/09 03:09:13;;;;;;;14.52;5.78;;;;;;;-141.50;100.00;63355.56;5091989;28;20047;-78
2021/04/09 03:11:43;;;;;;;10.30;4.93;;;;;;;-141.50;100.00;63355.56;5092299;28;20060;-78
2021/04/09 03:14:11;;;;;;;16.10;5.43;;;;;;;-141.50;100.00;63355.56;5091384;28;20044;-78
2021/04/09 03:16:43;;;;;;;17.13;5.45;;;;;;;-141.50;100.00;63355.56;5092577;28;20403;-78
2021/04/09 03:19:11;;;;;;;16.08;5.30;;;;;;;-141.50;100.00;63355.56;5091755;28;20048;-77
2021/04/09 03:21:37;;;;;;;12.63;5.22;;;;;;;-141.50;100.00;63355.56;5091620;28;20056;-78
2021/04/09 03:24:05;;;;;;;14.30;5.43;;;;;;;-141.50;100.00;63355.56;5075194;28;20483;-79
2021/04/09 03:26:31;;;;;;;11.75;5.45;;;;;;;-141.50;100.00;63355.56;5092095;28;20165;-78
2021/04/09 03:28:57;;;;;;;13.23;5.32;;;;;;;-141.50;100.00;63355.56;5091712;28;20044;-77
2021/04/09 03:31:23;;;;;;;13.45;5.68;;;;;;;-141.50;100.00;63355.56;5073993;28;20048;-77
2021/04/09 03:33:49;;;;;;;11.70;5.13;;;;;;;-141.50;100.00;63355.56;5091558;28;20032;-78
2021/04/09 03:36:15;;;;;;;12.52;5.30;;;;;;;-141.50;100.00;63355.56;5091347;28;20044;-77
2021/04/09 03:38:41;;;;;;;13.82;5.68;;;;;;;-141.50;100.00;63355.56;5073675;28;20372;-77
2021/04/09 03:41:10;;;;;;;13.85;5.78;;;;;;;-141.50;100.00;63355.56;5074605;28;20093;-77
2021/04/09 03:43:36;;;;;;;14.85;5.70;;;;;;;-141.50;100.00;63355.56;5091988;28;20040;-77
2021/04/09 03:46:02;;;;;;;15.23;5.97;;;;;;;-141.50;100.00;63355.56;5091449;28;20044;-76
2021/04/09 03:48:28;;;;;;;13.15;5.70;;;;;;;-141.50;100.00;63355.56;5090000;28;20464;-77
2021/04/09 03:50:55;;;;;;;17.08;5.93;;;;;;;-141.50;100.00;63355.56;5091076;28;20044;-77
2021/04/09 03:53:22;;;;;;;12.18;5.93;;;;;;;-141.50;100.00;63355.56;5072654;28;20058;-77
2021/04/09 03:55:48;;;;;;;12.27;5.70;;;;;;;-141.50;100.00;63355.56;5073533;28;20052;-77
2021/04/09 03:58:14;;;;;;;14.90;5.85;;;;;;;-141.50;100.00;63355.56;5090997;28;20044;-77
2021/04/09 04:00:40;;;;;;;15.18;6.50;;;;;;;-141.50;100.00;63355.56;5091740;28;20053;-78
2021/04/09 04:03:06;;;;;;;11.88;6.00;;;;;;;-141.50;100.00;63355.56;5090794;28;20044;-78
2021/04/09 04:05:32;;;;;;;13.65;6.10;;;;;;;-141.50;100.00;63355.56;5091238;28;20044;-77
2021/04/09 04:07:58;;;;;;;11.77;6.28;;;;;;;-141.50;100.00;63355.56;5091107;28;20506;-76
2021/04/09 04:10:24;;;;;;;16.17;6.20;;;;;;;-141.50;100.00;63355.56;5073490;28;20048;-77
2021/04/09 04:12:50;;;;;;;16.50;6.80;;;;;;;-141.50;100.00;63355.56;5073365;28;20093;-76
2021/04/09 04:15:16;;;;;;;12.68;5.97;;;;;;;-141.50;100.00;63355.56;5073065;28;20039;-76
2021/04/09 04:17:43;;;;;;;16.67;6.40;;;;;;;-141.50;100.00;63355.56;5094504;28;20043;-80
2021/04/09 04:20:09;;;;;;;13.68;6.32;;;;;;;-141.50;100.00;63355.56;5093938;28;20066;-76
2021/04/09 04:22:36;;;;;;;15.88;6.20;;;;;;;-141.50;100.00;63355.56;5094144;28;20044;-78
2021/04/09 04:25:03;;;;;;;14.95;5.82;;;;;;;-141.50;100.00;63355.56;5090786;28;20040;-77
2021/04/09 04:27:30;;;;;;;18.17;6.78;;;;;;;-141.50;100.00;63355.56;5091976;28;20044;-77
2021/04/09 04:29:56;;;;;;;14.65;6.55;;;;;;;-141.50;100.00;63355.56;5093027;28;20048;-77
2021/04/09 04:32:22;;;;;;;14.35;6.60;;;;;;;-141.50;100.00;63355.56;5083596;28;20047;-77
2021/04/09 04:34:50;;;;;;;16.55;6.88;;;;;;;-141.50;100.00;63355.56;5072095;28;20044;-76
2021/04/09 04:37:17;;;;;;;17.13;7.50;;;;;;;-141.50;100.00;63355.56;5081860;28;20047;-77
2021/04/09 04:39:43;;;;;;;12.93;6.30;;;;;;;-141.50;100.00;63355.56;5089880;28;20078;-78
2021/04/09 04:42:09;;;;;;;12.45;6.22;;;;;;;-141.50;100.00;63355.56;5090756;28;20044;-77
2021/04/09 04:44:36;;;;;;;16.05;7.22;;;;;;;-141.50;100.00;63355.56;5090808;28;20032;-77
2021/04/09 04:47:06;;;;;;;16.70;7.00;;;;;;;-141.50;100.00;63355.56;5093593;28;20042;-77
2021/04/09 04:49:33;;;;;;;15.77;7.18;;;;;;;-141.50;100.00;63355.56;5091355;28;20044;-77
2021/04/09 04:51:59;;;;;;;13.88;6.93;;;;;;;-141.50;100.00;63355.56;5090686;28;20547;-77
2021/04/09 04:54:25;;;;;;;15.45;6.93;;;;;;;-141.50;100.00;63355.56;5082685;28;20036;-78
2021/04/09 04:56:51;;;;;;;13.90;7.38;;;;;;;-141.50;100.00;63355.56;5059306;28;20048;-78
2021/04/09 04:59:17;;;;;;;13.68;6.78;;;;;;;-141.50;100.00;63355.56;5064263;28;20040;-79
2021/04/09 05:01:44;;;;;;;19.33;7.18;;;;;;;-141.50;100.00;63355.56;5089887;28;20056;-78
2021/04/09 05:04:10;;;;;;;17.88;7.05;;;;;;;-141.50;100.00;63355.56;5089424;28;20109;-79
2021/04/09 05:06:36;;;;;;;16.02;7.18;;;;;;;-141.50;100.00;63355.56;5090038;28;20517;-77
2021/04/09 05:09:02;;;;;;;16.75;7.03;;;;;;;-141.50;100.00;63355.56;5083601;28;20044;-79
2021/04/09 05:11:29;;;;;;;15.25;6.30;;;;;;;-141.50;100.00;63355.56;5050184;28;20055;-78
2021/04/09 05:13:54;;;;;;;13.82;6.72;;;;;;;-141.50;100.00;63355.56;5048968;28;20041;-78
2021/04/09 05:16:29;;;;;;;15.80;7.37;;;;;;;-141.50;100.00;63355.56;5063411;28;20530;-78
2021/04/09 05:18:56;;;;;;;12.55;6.60;;;;;;;-141.50;100.00;63355.56;5083823;28;20044;-78
2021/04/09 05:21:22;;;;;;;17.35;7.72;;;;;;;-141.50;100.00;63355.56;5068298;28;20048;-78
2021/04/09 05:23:49;;;;;;;18.17;7.82;;;;;;;-141.50;100.00;63355.56;5068081;28;20086;-78
2021/04/09 05:26:15;;;;;;;15.32;7.60;;;;;;;-141.50;100.00;63355.56;5068005;28;20045;-78
2021/04/09 05:28:41;;;;;;;18.80;7.28;;;;;;;-141.50;100.00;63355.56;5068836;28;20049;-78
2021/04/09 05:31:07;;;;;;;16.92;8.18;;;;;;;-141.50;100.00;63355.56;5071398;28;20041;-77
2021/04/09 05:33:33;;;;;;;17.67;8.05;;;;;;;-141.50;100.00;63355.56;5072395;28;20052;-76
2021/04/09 05:35:59;;;;;;;17.38;8.18;;;;;;;-141.50;100.00;63355.56;5073007;28;20045;-79
2021/04/09 05:38:25;;;;;;;16.75;8.20;;;;;;;-141.50;100.00;63355.56;5055129;28;20399;-78
2021/04/09 05:40:51;;;;;;;19.00;8.30;;;;;;;-141.50;100.00;63355.56;5063474;28;20048;-77
2021/04/09 05:43:18;;;;;;;16.75;7.55;;;;;;;-141.50;100.00;63355.56;5080106;28;20056;-78
2021/04/09 05:45:44;;;;;;;17.08;7.95;;;;;;;-141.50;100.00;63355.56;5071603;28;20110;-78
2021/04/09 05:48:11;;;;;;;17.42;8.77;;;;;;;-141.50;100.00;63355.56;5065393;28;20712;-78
2021/04/09 05:50:37;;;;;;;16.65;8.10;;;;;;;-141.50;100.00;63355.56;5085119;28;20481;-79
2021/04/09 05:53:03;;;;;;;14.80;8.10;;;;;;;-141.50;100.00;63355.56;5079895;28;20539;-79
2021/04/09 05:55:30;;;;;;;16.52;8.30;;;;;;;-141.50;100.00;63355.56;5059952;28;20568;-78
2021/04/09 05:57:57;;;;;;;18.13;8.45;;;;;;;-141.50;100.00;63355.56;5073186;28;20737;-77
2021/04/09 06:00:24;;;;;;;18.63;8.63;;;;;;;-141.50;100.00;63355.56;5080516;28;20407;-78
2021/04/09 06:02:52;;;;;;;13.88;7.57;;;;;;;-141.50;100.00;63355.56;5083073;28;20072;-78
2021/04/09 06:05:18;;;;;;;16.05;8.38;;;;;;;-141.50;100.00;63355.56;5073381;28;20044;-79
2021/04/09 06:07:45;;;;;;;13.30;7.20;;;;;;;-141.50;100.00;63355.56;5060685;28;20043;-78
2021/04/09 06:10:11;;;;;;;16.73;8.63;;;;;;;-141.50;100.00;63355.56;5074547;28;20040;-78
2021/04/09 06:12:38;;;;;;;15.98;7.95;;;;;;;-141.50;100.00;63355.56;5074573;28;20040;-77
2021/04/09 06:15:07;;;;;;;15.60;7.65;;;;;;;-141.50;100.00;63355.56;5074567;28;20090;-78
2021/04/09 06:17:33;;;;;;;13.95;7.60;;;;;;;-141.50;100.00;63355.56;5076143;28;20075;-78
2021/04/09 06:20:00;;;;;;;18.15;7.75;;;;;;;-141.50;100.00;63355.56;5080406;28;20045;-77
2021/04/09 06:22:27;;;;;;;15.63;7.05;;;;;;;-141.50;100.00;63355.56;5058722;28;20047;-77
2021/04/09 06:24:53;;;;;;;13.93;6.80;;;;;;;-141.50;100.00;63355.56;5074846;28;20048;-78
2021/04/09 06:27:19;;;;;;;15.95;7.00;;;;;;;-141.50;100.00;63355.56;5074367;28;20048;-77
2021/04/09 06:29:45;;;;;;;11.40;6.50;;;;;;;-141.50;100.00;63355.56;5074581;28;20045;-77
2021/04/09 06:32:13;;;;;;;13.55;7.13;;;;;;;-141.50;100.00;63355.56;5074439;28;20068;-78
2021/04/09 06:34:39;;;;;;;13.38;7.00;;;;;;;-141.50;100.00;63355.56;5056052;28;20126;-78
2021/04/09 06:37:08;;;;;;;13.80;6.97;;;;;;;-141.50;100.00;63355.56;5078198;28;20036;-78
2021/04/09 06:39:34;;;;;;;12.90;7.22;;;;;;;-141.50;100.00;63355.56;5079216;28;20774;-78
2021/04/09 06:42:01;;;;;;;16.83;7.28;;;;;;;-141.50;100.00;63355.56;5082798;28;20725;-78
2021/04/09 06:44:29;;;;;;;13.95;7.13;;;;;;;-141.50;100.00;63355.56;5080429;22;20049;-75
2021/04/09 06:46:56;;;;;;;11.70;6.80;;;;;;;-141.50;100.00;63355.56;5031350;28;20103;-76
2021/04/09 06:49:24;;;;;;;12.35;6.50;;;;;;;-141.50;100.00;63355.56;5048483;28;20064;-76
2021/04/09 06:51:50;;;;;;;15.73;7.20;;;;;;;-141.50;100.00;63355.56;5050211;28;20045;-76
2021/04/09 06:54:17;;;;;;;12.70;6.82;;;;;;;-141.50;100.00;63355.56;5032904;28;20040;-76
2021/04/09 06:56:45;;;;;;;14.38;6.68;;;;;;;-141.50;100.00;63355.56;5032673;28;20049;-76
2021/04/09 06:59:17;;;;;;;14.48;6.93;;;;;;;-141.50;100.00;63355.56;5048871;28;20041;-76
2021/04/09 07:01:45;;;;;;;12.30;6.03;;;;;;;-141.50;100.00;63355.56;5031965;28;20033;-77
2021/04/09 07:04:13;;;;;;;12.55;6.25;;;;;;;-141.50;100.00;63355.56;5031640;28;20463;-76
2021/04/09 07:06:39;;;;;;;12.68;6.45;;;;;;;-141.50;100.00;63355.56;5050173;28;20052;-76
2021/04/09 07:09:06;;;;;;;12.23;5.82;;;;;;;-141.50;100.00;63355.56;5049769;28;20433;-76
2021/04/09 07:11:39;;;;;;;13.15;6.40;;;;;;;-141.50;100.00;63355.56;5032597;28;20063;-76
2021/04/09 07:14:05;;;;;;;10.88;5.90;;;;;;;-141.50;100.00;63355.56;5033884;28;20041;-76
2021/04/09 07:16:31;;;;;;;13.43;6.15;;;;;;;-141.50;100.00;63355.56;5011185;28;20045;-76
2021/04/09 07:19:05;;;;;;;10.48;5.80;;;;;;;-141.50;100.00;63355.56;5029479;28;20127;-76
2021/04/09 07:21:33;;;;;;;9.90;5.60;;;;;;;-141.50;100.00;63355.56;5012192;28;20076;-76
2021/04/09 07:24:17;;;;;;;12.10;5.57;;;;;;;-141.50;100.00;63355.56;5029620;28;20057;-75
2021/04/09 07:26:52;;;;;;;11.27;5.30;;;;;;;-141.50;100.00;63355.56;5011726;28;20057;-76
2021/04/09 07:29:31;;;;;;;11.50;5.93;;;;;;;-141.50;100.00;63355.56;5029396;28;20041;-76
2021/04/09 07:31:58;;;;;;;14.02;5.53;;;;;;;-141.50;100.00;63355.56;5029759;28;20409;-75
2021/04/09 07:34:25;;;;;;;13.85;5.80;;;;;;;-141.50;100.00;63355.56;5041333;28;20602;-75
2021/04/09 07:36:55;;;;;;;11.38;5.13;;;;;;;-141.50;100.00;63355.56;5032024;28;20053;-75
2021/04/09 07:39:34;;;;;;;10.15;5.05;;;;;;;-141.50;100.00;63355.56;5029460;28;20220;-74
2021/04/09 07:42:13;;;;;;;16.80;5.45;;;;;;;-141.50;100.00;63355.56;4995869;28;20594;-75
2021/04/09 07:44:41;;;;;;;16.15;6.15;;;;;;;-141.50;100.00;63355.56;5033113;28;20045;-76
2021/04/09 07:47:09;;;;;;;13.35;5.10;;;;;;;-141.50;100.00;63355.56;5027973;28;20489;-75
2021/04/09 07:49:35;;;;;;;11.23;4.80;;;;;;;-141.50;100.00;63355.56;5029377;28;20539;-75
2021/04/09 07:52:15;;;;;;;9.20;4.45;;;;;;;-141.50;100.00;63355.56;5029010;28;20116;-75
2021/04/09 07:54:41;;;;;;;13.48;5.00;;;;;;;-141.50;100.00;63355.56;5028786;28;20079;-74
2021/04/09 07:57:08;;;;;;;8.30;4.80;;;;;;;-141.50;100.00;63355.56;5030035;28;20045;-74
2021/04/09 07:59:43;;;;;;;8.60;4.40;;;;;;;-141.50;100.00;63355.56;5027733;28;20417;-74
2021/04/09 08:02:09;;;;;;;10.27;4.75;;;;;;;-141.50;100.00;63355.56;5011845;28;20061;-75
2021/04/09 08:04:40;;;;;;;9.20;4.57;;;;;;;-141.50;100.00;63355.56;5028786;28;20045;-75
2021/04/09 08:07:08;;;;;;;12.50;4.70;;;;;;;-141.50;100.00;63355.56;5027485;28;20043;-75
2021/04/09 08:09:52;;;;;;;9.32;4.50;;;;;;;-141.50;100.00;63355.56;5011659;28;20061;-75
2021/04/09 08:12:26;;;;;;;8.98;5.03;;;;;;;-141.50;100.00;63355.56;5028046;28;20041;-75
2021/04/09 08:14:53;;;;;;;12.60;4.93;;;;;;;-141.50;100.00;63355.56;5028835;28;20077;-75
2021/04/09 08:17:24;;;;;;;8.35;4.50;;;;;;;-141.50;100.00;63355.56;5028592;28;20060;-74
2021/04/09 08:19:55;;;;;;;9.43;5.00;;;;;;;-141.50;100.00;63355.56;5011331;28;20041;-75
2021/04/09 08:22:22;;;;;;;12.60;5.10;;;;;;;-141.50;100.00;63355.56;5010058;28;20068;-75
2021/04/09 08:24:49;;;;;;;13.00;4.72;;;;;;;-141.50;100.00;63355.56;5028527;28;20048;-75
2021/04/09 08:27:16;;;;;;;10.48;4.20;;;;;;;-141.50;100.00;63355.56;5049709;28;20538;-75
2021/04/09 08:29:43;;;;;;;12.00;4.40;;;;;;;-141.50;100.00;63355.56;5031583;28;20044;-75
2021/04/09 08:32:11;;;;;;;11.30;4.65;;;;;;;-141.50;100.00;63355.56;5037555;28;20179;-76
2021/04/09 08:34:37;;;;;;;12.77;4.90;;;;;;;-141.50;100.00;63355.56;5030140;28;20052;-76
2021/04/09 08:37:07;;;;;;;11.73;4.80;;;;;;;-141.50;100.00;63355.56;5042479;28;20048;-76
2021/04/09 08:39:41;;;;;;;9.35;4.40;;;;;;;-141.50;100.00;63355.56;5021482;28;20041;-76
2021/04/09 08:42:08;;;;;;;9.10;4.50;;;;;;;-141.50;100.00;63355.56;5022963;28;20401;-76
2021/04/09 08:44:34;;;;;;;12.55;4.20;;;;;;;-141.50;100.00;63355.56;5007180;28;20050;-76
2021/04/09 08:47:04;;;;;;;12.55;4.18;;;;;;;-141.50;100.00;63355.56;4986715;28;20052;-76
2021/04/09 08:49:32;;;;;;;8.38;4.10;;;;;;;-141.50;100.00;63355.56;5012442;28;20446;-76
2021/04/09 08:52:03;;;;;;;9.77;4.40;;;;;;;-141.50;100.00;63355.56;5023847;28;20049;-76
2021/04/09 08:54:30;;;;;;;8.50;4.20;;;;;;;-141.50;100.00;63355.56;5028307;28;20041;-75
2021/04/09 08:57:03;;;;;;;9.57;4.57;;;;;;;-141.50;100.00;63355.56;5023588;28;20140;-75
2021/04/09 08:59:47;;;;;;;8.82;4.68;;;;;;;-141.50;100.00;63355.56;5022258;28;20076;-75
2021/04/09 09:02:27;;;;;;;12.30;4.30;;;;;;;-141.50;100.00;63355.56;5028696;28;20057;-75
2021/04/09 09:05:02;;;;;;;6.38;3.95;;;;;;;-141.50;100.00;63355.56;5028087;28;20654;-75
2021/04/09 09:07:48;;;;;;;8.18;3.97;;;;;;;-141.50;100.00;63355.56;5028362;28;20624;-76
2021/04/09 09:10:29;;;;;;;9.60;4.60;;;;;;;-141.50;100.00;63355.56;5028295;28;20556;-75
2021/04/09 09:13:08;;;;;;;10.80;3.90;;;;;;;-141.50;100.00;63355.56;5015475;28;20459;-75
2021/04/09 09:15:40;;;;;;;8.25;3.75;;;;;;;-141.50;100.00;63355.56;5036004;28;20042;-75
2021/04/09 09:18:36;;;;;;;12.48;4.53;;;;;;;-141.50;100.00;63355.56;5014305;28;20137;-75
2021/04/09 09:21:14;;;;;;;10.60;4.50;;;;;;;-141.50;100.00;63355.56;5011798;28;20081;-74
2021/04/09 09:23:51;;;;;;;10.27;4.13;;;;;;;-141.50;100.00;63355.56;5031858;28;20432;-74
2021/04/09 09:26:29;;;;;;;9.80;4.22;;;;;;;-141.50;100.00;63355.56;5014303;28;20099;-75
2021/04/09 09:29:16;;;;;;;11.93;4.28;;;;;;;-141.50;100.00;63355.56;5032385;28;20045;-74
2021/04/09 09:31:43;;;;;;;7.68;4.00;;;;;;;-141.50;100.00;63355.56;5015855;28;20061;-76
2021/04/09 09:34:23;;;;;;;11.07;4.35;;;;;;;-141.50;100.00;63355.56;5031972;28;20042;-75
2021/04/09 09:37:19;;;;;;;11.38;4.47;;;;;;;-141.50;100.00;63355.56;5008371;28;20045;-76
2021/04/09 09:39:49;;;;;;;10.18;4.40;;;;;;;-141.50;100.00;63355.56;5014966;28;20033;-75
2021/04/09 09:42:43;;;;;;;10.07;4.28;;;;;;;-141.50;100.00;63355.56;5031106;28;20080;-74
2021/04/09 09:45:35;;;;;;;9.45;4.55;;;;;;;-141.50;100.00;63355.56;5032618;28;20104;-75
2021/04/09 09:48:19;;;;;;;8.35;4.20;;;;;;;-141.50;100.00;63355.56;5028475;28;20068;-75
2021/04/09 09:50:45;;;;;;;9.30;4.25;;;;;;;-141.50;100.00;63355.56;5049205;28;20037;-76
2021/04/09 09:53:11;;;;;;;10.27;4.30;;;;;;;-141.50;100.00;63355.56;5042879;28;20679;-76
2021/04/09 09:55:47;;;;;;;8.43;4.20;;;;;;;-141.50;100.00;63355.56;5040805;28;20044;-74
2021/04/09 09:58:19;;;;;;;9.38;4.35;;;;;;;-141.50;100.00;63355.56;5045525;28;20343;-76
2021/04/09 10:00:53;;;;;;;8.85;4.05;;;;;;;-141.50;100.00;63355.56;5051604;28;20124;-75
2021/04/09 10:03:29;;;;;;;7.38;4.13;;;;;;;-141.50;100.00;63355.56;5051581;28;20568;-75
2021/04/09 10:06:08;;;;;;;8.25;3.85;;;;;;;-141.50;100.00;63355.56;5042649;28;20048;-75
2021/04/09 10:08:54;;;;;;;7.03;4.03;;;;;;;-141.50;100.00;63355.56;5046867;28;20045;-75
2021/04/09 10:11:22;;;;;;;7.20;4.30;;;;;;;-141.50;100.00;63355.56;5044430;28;20045;-75
2021/04/09 10:13:50;;;;;;;8.77;4.18;;;;;;;-141.50;100.00;63355.56;5049671;28;20041;-75
2021/04/09 10:16:17;;;;;;;7.82;3.60;;;;;;;-141.50;100.00;63355.56;5050802;28;20051;-75
2021/04/09 10:18:56;;;;;;;9.13;3.78;;;;;;;-141.50;100.00;63355.56;5051133;28;20124;-74
2021/04/09 10:21:25;;;;;;;7.53;3.85;;;;;;;-141.50;100.00;63355.56;5049694;28;20250;-76
2021/04/09 10:24:04;;;;;;;12.13;4.40;;;;;;;-141.50;100.00;63355.56;5032315;28;20243;-75
2021/04/09 10:26:31;;;;;;;9.15;4.18;;;;;;;-141.50;100.00;63355.56;5029022;28;20464;-76
2021/04/09 10:29:00;;;;;;;9.07;4.30;;;;;;;-141.50;100.00;63355.56;5030252;28;20342;-76
2021/04/09 10:31:26;;;;;;;8.75;3.78;;;;;;;-141.50;100.00;63355.56;5047963;28;20041;-75
2021/04/09 10:33:54;;;;;;;12.43;4.60;;;;;;;-141.50;100.00;63355.56;5048007;28;20482;-76
2021/04/09 10:36:24;;;;;;;9.45;4.28;;;;;;;-141.50;100.00;63355.56;5029112;28;20041;-75
2021/04/09 10:38:53;;;;;;;8.52;4.03;;;;;;;-141.50;100.00;63355.56;5011154;28;20057;-75
2021/04/09 10:41:34;;;;;;;11.02;4.13;;;;;;;-141.50;100.00;63355.56;5010425;28;20053;-75
2021/04/09 10:44:04;;;;;;;11.57;4.78;;;;;;;-141.50;100.00;63355.56;5011548;28;20048;-74
2021/04/09 10:46:32;;;;;;;10.07;4.43;;;;;;;-141.50;100.00;63355.56;5014082;28;20056;-75
2021/04/09 10:49:10;;;;;;;9.85;4.55;;;;;;;-141.50;100.00;63355.56;5046917;28;20128;-75
2021/04/09 10:51:47;;;;;;;8.75;4.40;;;;;;;-141.50;100.00;63355.56;5050615;28;20099;-76
2021/04/09 10:54:21;;;;;;;8.65;5.10;;;;;;;-141.50;100.00;63355.56;5050610;28;20048;-75
2021/04/09 10:56:58;;;;;;;11.27;5.03;;;;;;;-141.50;100.00;63355.56;5051131;28;20056;-76
2021/04/09 10:59:29;;;;;;;9.60;4.53;;;;;;;-141.50;100.00;63355.56;5033034;28;20515;-77
2021/04/09 11:01:56;;;;;;;10.00;4.75;;;;;;;-141.50;100.00;63355.56;5035115;28;20049;-76
2021/04/09 11:04:24;;;;;;;8.65;4.32;;;;;;;-141.50;100.00;63355.56;5041819;28;20045;-76
2021/04/09 11:07:04;;;;;;;12.18;4.78;;;;;;;-141.50;100.00;63355.56;5031954;28;20480;-75
2021/04/09 11:09:42;;;;;;;12.45;5.32;;;;;;;-141.50;100.00;63355.56;5013234;28;20077;-75
2021/04/09 11:12:19;;;;;;;8.93;4.75;;;;;;;-141.50;100.00;63355.56;5012779;28;20050;-75
2021/04/09 11:14:49;;;;;;;11.20;5.35;;;;;;;-141.50;100.00;63355.56;5012010;28;20052;-75
2021/04/09 11:17:25;;;;;;;12.38;4.90;;;;;;;-141.50;100.00;63355.56;5030193;28;20486;-75